Time;durP1;ratioP1;P1;durP2;ratioP2;P2;SDS_P1;SDS_P2;PMS_P1;PMS_P2;Temp;Humidity;BMP_temperature;BMP_pressure;BME280_temperature;BME280_humidity;BME280_pressure;Samples;Min_cycle;Max_cycle;Signal;HPM_P1;HPM_P2
2022/11/06 00:00:53;;;;;;;7.15;2.67;;;;;;;10.70;66.73;98388.56;5142366;28;20048;-95
2022/11/06 00:03:19;;;;;;;5.85;2.22;;;;;;;10.83;65.96;98389.03;5137125;28;20117;-94
2022/11/06 00:08:48;;;;;;;4.75;2.50;;;;;;;10.90;66.78;98401.19;5132875;27;1553026;-95
2022/11/06 00:11:17;;;;;;;6.93;2.40;;;;;;;10.85;66.72;98400.50;5183455;27;20050;-96
2022/11/06 00:13:43;;;;;;;;;;;;;;;10.98;66.71;98433.72;5184452;27;20282;-95
2022/11/06 00:16:11;;;;;;;4.40;2.10;;;;;;;10.77;66.90;98410.50;5185137;27;19966;-96
2022/11/06 00:18:39;;;;;;;5.28;1.98;;;;;;;10.87;66.38;98385.34;5183742;27;20050;-95
2022/11/06 00:21:09;;;;;;;3.65;2.00;;;;;;;11.04;64.97;98396.28;5181494;27;20046;-96
2022/11/06 00:23:36;;;;;;;3.72;2.00;;;;;;;11.09;64.79;98402.28;5184112;27;20053;-96
2022/11/06 00:26:06;;;;;;;7.50;2.50;;;;;;;11.11;65.16;98404.91;5182448;27;20050;-96
2022/11/06 00:28:33;;;;;;;8.13;2.25;;;;;;;11.13;65.15;98411.03;5182706;27;20035;-96
2022/11/06 00:31:03;;;;;;;3.42;1.90;;;;;;;11.15;64.33;98406.53;5184657;27;20133;-96
2022/11/06 00:33:29;;;;;;;3.50;2.03;;;;;;;11.23;63.27;98403.59;5185101;27;20045;-95
2022/11/06 00:36:01;;;;;;;6.28;2.33;;;;;;;11.26;63.16;98409.69;5185420;27;20038;-96
2022/11/06 00:38:28;;;;;;;5.70;2.10;;;;;;;11.31;63.10;98406.84;5186302;27;20049;-96
2022/11/06 00:40:54;;;;;;;3.50;2.30;;;;;;;11.32;63.56;98411.28;5184190;27;20120;-96
2022/11/06 00:43:22;;;;;;;14.45;4.20;;;;;;;11.35;62.68;98404.97;5183586;27;20041;-96
2022/11/06 00:45:48;;;;;;;10.10;2.45;;;;;;;11.47;63.50;98434.69;5185162;27;20038;-96
2022/11/06 00:48:14;;;;;;;5.95;2.22;;;;;;;11.34;63.46;98421.84;5183464;27;20054;-95
2022/11/06 00:50:43;;;;;;;3.72;1.77;;;;;;;11.31;63.94;98417.50;5185103;27;20042;-96
2022/11/06 00:53:14;;;;;;;3.33;2.15;;;;;;;11.20;64.08;98415.22;5184399;27;20042;-95
2022/11/06 00:55:40;;;;;;;3.42;2.00;;;;;;;11.12;64.51;98406.63;5180996;27;20043;-95
2022/11/06 00:58:06;;;;;;;5.35;1.92;;;;;;;11.06;65.04;98410.38;5184529;27;20483;-95
2022/11/06 01:00:34;;;;;;;4.35;2.38;;;;;;;11.23;65.49;98439.09;5184322;27;20049;-96
2022/11/06 01:03:03;;;;;;;5.82;2.33;;;;;;;11.18;65.07;98438.34;5185825;27;20049;-96
2022/11/06 01:05:34;;;;;;;5.75;2.20;;;;;;;11.09;64.83;98417.41;5183671;27;20111;-96
2022/11/06 01:08:00;;;;;;;4.35;2.28;;;;;;;11.18;64.34;98424.19;5181593;27;20049;-95
2022/11/06 01:10:26;;;;;;;5.15;2.10;;;;;;;11.20;63.83;98412.56;5183402;27;20042;-95
2022/11/06 01:12:52;;;;;;;3.83;1.90;;;;;;;11.40;62.90;98434.94;5182303;27;20046;-96
2022/11/06 01:15:17;;;;;;;3.78;2.40;;;;;;;11.39;63.21;98435.88;5183205;27;20050;-95
2022/11/06 01:17:45;;;;;;;5.38;2.10;;;;;;;11.27;62.92;98429.19;5184570;27;20063;-95
2022/11/06 01:20:11;;;;;;;5.00;2.13;;;;;;;11.22;63.27;98426.69;5167546;27;20061;-96
2022/11/06 01:22:40;;;;;;;5.53;2.30;;;;;;;11.37;63.44;98462.53;5168374;27;20043;-94
2022/11/06 01:25:07;;;;;;;6.03;2.40;;;;;;;11.21;63.79;98442.69;5165903;27;20134;-94
2022/11/06 01:27:34;;;;;;;5.00;1.83;;;;;;;11.33;63.80;98478.69;5166835;27;20053;-95
2022/11/06 01:30:00;;;;;;;7.43;2.35;;;;;;;11.24;64.39;98461.25;5167509;27;20039;-95
2022/11/06 01:32:26;;;;;;;4.97;2.35;;;;;;;11.22;64.34;98471.94;5166630;27;20042;-94
2022/11/06 01:34:54;;;;;;;6.82;2.40;;;;;;;11.19;63.97;98455.19;5167831;27;20046;-95
2022/11/06 01:37:21;;;;;;;3.63;1.92;;;;;;;11.24;63.75;98462.09;5167030;27;20050;-95
2022/11/06 01:39:48;;;;;;;6.00;2.10;;;;;;;11.19;64.04;98465.84;5168014;27;20035;-95
2022/11/06 01:42:17;;;;;;;6.93;2.33;;;;;;;11.21;63.68;98467.53;5166763;27;20034;-95
2022/11/06 01:45:30;;;;;;;4.18;2.33;;;;;;;11.23;63.38;98462.16;5167499;27;20054;-94
2022/11/06 01:47:59;;;;;;;6.18;2.10;;;;;;;11.33;63.92;98470.69;5167815;27;20058;-95
2022/11/06 01:50:28;;;;;;;4.47;2.10;;;;;;;11.23;63.20;98463.03;5169765;27;20034;-95
2022/11/06 01:52:55;;;;;;;5.50;2.35;;;;;;;11.28;62.66;98453.09;5174370;27;20047;-95
2022/11/06 01:55:26;;;;;;;4.28;1.92;;;;;;;11.33;62.08;98446.75;5172522;27;20129;-95
2022/11/06 01:57:55;;;;;;;4.40;2.03;;;;;;;11.36;62.89;98465.25;5168048;27;20046;-96
2022/11/06 02:00:20;;;;;;;4.93;2.22;;;;;;;11.35;63.41;98464.38;5165082;27;20043;-96
2022/11/06 02:02:47;;;;;;;4.20;2.00;;;;;;;11.34;63.54;98475.94;5165859;27;20043;-95
2022/11/06 02:05:13;;;;;;;5.25;2.60;;;;;;;11.41;63.04;98480.16;5164822;27;20045;-95
2022/11/06 02:07:44;;;;;;;3.95;2.10;;;;;;;11.45;63.79;98491.53;5152826;27;20046;-95
2022/11/06 02:10:10;;;;;;;4.22;2.00;;;;;;;11.35;64.42;98484.81;5145130;27;20127;-95
2022/11/06 02:12:51;;;;;;;4.70;2.10;;;;;;;11.34;64.93;98485.72;5145432;27;20066;-96
2022/11/06 02:15:27;;;;;;;4.82;2.45;;;;;;;11.33;64.57;98463.56;5144048;27;20057;-95
2022/11/06 02:18:10;;;;;;;3.60;2.20;;;;;;;11.57;64.62;98499.13;5144357;27;20051;-95
2022/11/06 02:20:45;;;;;;;5.18;2.00;;;;;;;11.33;65.71;98468.03;5139016;27;20066;-95
2022/11/06 02:23:37;;;;;;;5.07;1.90;;;;;;;11.28;65.81;98463.75;5143918;27;20055;-95
2022/11/06 02:26:14;;;;;;;5.38;2.05;;;;;;;11.40;65.19;98457.09;5144288;27;20126;-96
2022/11/06 02:28:49;;;;;;;4.20;2.20;;;;;;;11.50;65.71;98478.97;5145125;27;20065;-96
2022/11/06 02:31:22;;;;;;;4.75;2.33;;;;;;;11.28;65.81;98453.09;5143295;27;20043;-96
2022/11/06 02:33:53;;;;;;;4.15;1.95;;;;;;;11.42;66.47;98492.53;5143735;27;20523;-95
2022/11/06 02:36:28;;;;;;;4.70;2.10;;;;;;;11.27;66.70;98464.63;5143726;27;20051;-95
2022/11/06 02:39:00;;;;;;;3.53;2.00;;;;;;;11.28;67.28;98471.72;5143903;27;20050;-95
2022/11/06 02:41:31;;;;;;;6.28;2.42;;;;;;;11.38;66.92;98487.38;5144143;27;20042;-96
2022/11/06 02:44:02;;;;;;;8.48;2.83;;;;;;;11.35;66.84;98483.03;5144314;27;20039;-94
2022/11/06 02:46:33;;;;;;;4.32;2.33;;;;;;;11.36;67.04;98490.06;5144130;27;20027;-95
2022/11/06 02:49:03;;;;;;;2.85;1.70;;;;;;;11.38;66.87;98484.69;5143598;27;20039;-96
2022/11/06 02:51:31;;;;;;;4.88;2.28;;;;;;;11.29;67.08;98470.78;5143131;27;20039;-95
2022/11/06 02:54:01;;;;;;;6.93;2.25;;;;;;;11.35;68.20;98492.81;5143680;27;20043;-95
2022/11/06 02:56:32;;;;;;;9.43;2.33;;;;;;;11.20;67.80;98471.13;5143337;27;20503;-95
2022/11/06 02:59:03;;;;;;;4.10;2.20;;;;;;;11.20;68.95;98479.09;5143689;27;20104;-96
2022/11/06 03:01:33;;;;;;;4.05;2.20;;;;;;;11.22;69.06;98490.56;5144010;27;20047;-96
2022/11/06 03:04:04;;;;;;;5.55;2.50;;;;;;;11.20;68.11;98471.13;5143683;27;20103;-96
2022/11/06 03:06:35;;;;;;;6.28;2.72;;;;;;;11.18;68.32;98474.75;5143620;27;20043;-95
2022/11/06 03:09:05;;;;;;;4.25;2.20;;;;;;;11.20;68.88;98484.41;5143701;27;20047;-96
2022/11/06 03:11:37;;;;;;;4.43;2.00;;;;;;;11.15;68.80;98470.41;5144037;27;20047;-95
2022/11/06 03:14:11;;;;;;;5.13;2.42;;;;;;;11.17;68.73;98478.31;5143309;27;20040;-95
2022/11/06 03:16:48;;;;;;;5.45;2.40;;;;;;;11.19;68.43;98485.34;5143036;27;20129;-95
2022/11/06 03:19:26;;;;;;;3.90;2.35;;;;;;;11.24;68.48;98504.69;5143497;27;20039;-96
2022/11/06 03:21:57;;;;;;;4.97;2.20;;;;;;;11.09;68.33;98481.25;5142831;27;20046;-95
2022/11/06 03:24:29;;;;;;;3.20;2.20;;;;;;;11.10;68.72;98485.63;5143825;27;20135;-95
2022/11/06 03:26:56;;;;;;;4.43;2.47;;;;;;;11.12;68.39;98490.91;5141908;27;20043;-94
2022/11/06 03:29:28;;;;;;;8.10;2.47;;;;;;;11.13;68.03;98492.69;5143425;27;20110;-95
2022/11/06 03:32:00;;;;;;;3.67;2.28;;;;;;;11.19;67.72;98503.09;5143253;27;20532;-95
2022/11/06 03:34:31;;;;;;;5.28;2.20;;;;;;;11.28;67.52;98519.63;5142067;27;20047;-94
2022/11/06 03:37:03;;;;;;;6.40;2.35;;;;;;;11.19;67.98;98495.09;5143136;27;20043;-96
2022/11/06 03:39:39;;;;;;;6.05;2.63;;;;;;;11.29;67.96;98521.38;5143207;27;20061;-95
2022/11/06 03:42:09;;;;;;;4.63;2.50;;;;;;;11.28;67.53;98514.31;5142191;27;20053;-95
2022/11/06 03:44:42;;;;;;;4.93;2.30;;;;;;;11.22;67.54;98511.84;5143252;27;20059;-94
2022/11/06 03:47:12;;;;;;;6.43;2.30;;;;;;;11.16;68.16;98509.38;5143401;27;20053;-95
2022/11/06 03:49:42;;;;;;;6.10;2.78;;;;;;;11.19;69.13;98527.94;5143143;27;20134;-96
2022/11/06 03:52:12;;;;;;;3.70;2.10;;;;;;;11.08;68.21;98512.31;5142584;27;20046;-95
2022/11/06 03:54:43;;;;;;;4.03;2.20;;;;;;;11.33;67.69;98546.09;5142826;27;20047;-94
2022/11/06 03:57:14;;;;;;;5.30;2.55;;;;;;;11.22;68.46;98534.94;5143519;27;20039;-95
2022/11/06 03:59:46;;;;;;;4.50;2.53;;;;;;;11.24;67.63;98549.06;5142504;27;20077;-95
2022/11/06 04:02:14;;;;;;;5.10;2.60;;;;;;;11.12;67.55;98533.50;5142987;27;20043;-95
2022/11/06 04:04:47;;;;;;;5.93;2.20;;;;;;;11.06;68.58;98524.81;5143023;27;20043;-94
2022/11/06 04:07:16;;;;;;;4.13;2.42;;;;;;;10.94;68.49;98509.25;5142556;28;20090;-95
2022/11/06 04:15:56;;;;;;;4.68;2.40;;;;;;;10.66;68.90;98533.19;5162091;27;20377;-95
2022/11/06 04:18:22;;;;;;;5.95;2.28;;;;;;;10.57;69.15;98536.13;5162140;27;20059;-95
2022/11/06 04:27:45;;;;;;;5.88;2.33;;;;;;;10.37;70.11;98550.91;5180974;27;20415;-95
2022/11/06 04:30:14;;;;;;;4.30;2.25;;;;;;;10.20;69.60;98532.75;5180062;27;20050;-95
2022/11/06 04:33:05;;;;;;;5.78;2.30;;;;;;;10.30;69.30;98553.78;5180138;27;20394;-96
2022/11/06 04:35:47;;;;;;;4.30;2.38;;;;;;;10.11;69.07;98542.81;5180693;27;20034;-93
2022/11/06 04:38:22;;;;;;;4.30;2.30;;;;;;;10.18;69.08;98560.31;5181233;27;20043;-94
2022/11/06 04:40:53;;;;;;;5.05;2.10;;;;;;;10.21;69.01;98568.16;5181954;27;20081;-96
2022/11/06 04:43:27;;;;;;;5.38;2.15;;;;;;;10.01;68.50;98537.72;5181872;27;20126;-95
2022/11/06 04:45:57;;;;;;;4.65;2.40;;;;;;;10.03;68.09;98541.22;5179947;27;20042;-96
2022/11/06 04:48:27;;;;;;;4.55;2.30;;;;;;;10.10;68.01;98543.69;5180362;27;20364;-93
2022/11/06 04:50:58;;;;;;;6.10;2.40;;;;;;;10.28;66.96;98564.44;5181819;27;20053;-94
2022/11/06 04:53:25;;;;;;;6.07;2.83;;;;;;;10.10;67.37;98530.41;5181102;27;20038;-95
2022/11/06 04:55:58;;;;;;;7.53;2.53;;;;;;;10.02;67.68;98539.50;5181496;27;20038;-95
2022/11/06 04:58:27;;;;;;;3.08;2.15;;;;;;;9.97;68.02;98537.88;5180599;27;20135;-95
2022/11/06 05:00:53;;;;;;;5.00;2.20;;;;;;;9.88;68.69;98531.88;5181343;27;20133;-94
2022/11/06 05:03:21;;;;;;;4.00;2.30;;;;;;;9.97;68.45;98549.34;5180059;27;20491;-95
2022/11/06 05:05:52;;;;;;;5.70;2.90;;;;;;;9.94;68.21;98545.94;5180802;27;20042;-95
2022/11/06 05:08:21;;;;;;;6.03;2.17;;;;;;;9.91;68.55;98556.63;5181368;27;20042;-94
2022/11/06 05:10:47;;;;;;;4.78;2.30;;;;;;;9.73;69.28;98548.25;5181191;27;20050;-94
2022/11/06 05:13:14;;;;;;;4.53;2.20;;;;;;;9.92;68.78;98569.88;5179910;27;20034;-95
2022/11/06 05:15:43;;;;;;;3.65;2.30;;;;;;;9.84;68.94;98563.88;5180046;27;20039;-95
2022/11/06 05:18:09;;;;;;;5.18;2.55;;;;;;;9.99;67.96;98554.63;5179802;27;20049;-96
2022/11/06 05:20:35;;;;;;;3.78;2.50;;;;;;;9.99;68.13;98565.25;5179570;27;20054;-95
2022/11/06 05:23:02;;;;;;;3.72;2.20;;;;;;;9.77;70.33;98549.91;5180036;27;20038;-95
2022/11/06 05:25:30;;;;;;;5.60;2.55;;;;;;;9.63;69.48;98550.31;5179289;27;20049;-95
2022/11/06 05:27:57;;;;;;;3.75;2.17;;;;;;;9.73;70.37;98563.31;5180002;27;20051;-94
2022/11/06 05:30:26;;;;;;;5.30;2.40;;;;;;;9.65;70.56;98566.19;5179801;27;20472;-94
2022/11/06 05:32:54;;;;;;;5.32;2.35;;;;;;;9.31;74.16;98559.09;5179504;27;20039;-95
2022/11/06 05:35:20;;;;;;;5.38;2.30;;;;;;;9.44;71.41;98567.63;5180853;27;20117;-94
2022/11/06 05:37:47;;;;;;;4.80;2.40;;;;;;;9.42;71.91;98559.69;5170798;27;20573;-95
2022/11/06 05:40:12;;;;;;;4.10;2.13;;;;;;;9.26;73.76;98553.03;5165974;27;20129;-95
2022/11/06 05:42:40;;;;;;;4.55;2.55;;;;;;;9.32;72.11;98570.56;5165880;27;20062;-95
2022/11/06 05:45:07;;;;;;;5.68;2.40;;;;;;;9.39;71.61;98566.84;5165320;27;20038;-94
2022/11/06 05:47:34;;;;;;;4.72;2.38;;;;;;;9.60;70.23;98558.31;5164892;27;20046;-94
2022/11/06 05:50:01;;;;;;;4.32;2.30;;;;;;;9.77;70.90;98600.38;5164855;27;20095;-94
2022/11/06 05:52:27;;;;;;;5.03;2.60;;;;;;;9.53;71.76;98572.69;5164672;27;20111;-94
2022/11/06 05:54:53;;;;;;;4.15;2.30;;;;;;;9.66;70.01;98586.50;5164833;27;20141;-94
2022/11/06 05:57:19;;;;;;;4.75;2.28;;;;;;;9.76;69.82;98613.69;5164824;27;20038;-95
2022/11/06 05:59:45;;;;;;;6.03;2.50;;;;;;;9.50;72.47;98594.00;5165052;27;20095;-96
2022/11/06 06:02:11;;;;;;;6.65;2.40;;;;;;;9.31;74.74;98622.78;5165159;27;20091;-94
2022/11/06 06:04:37;;;;;;;5.72;2.50;;;;;;;9.21;73.52;98619.47;5165262;27;20192;-96
2022/11/06 06:07:04;;;;;;;7.10;2.42;;;;;;;9.00;76.41;98625.28;5165854;27;20620;-94
2022/11/06 06:09:33;;;;;;;5.20;2.63;;;;;;;8.91;77.04;98633.44;5164862;27;20038;-94
2022/11/06 06:12:00;;;;;;;6.18;3.05;;;;;;;8.75;78.73;98623.19;5164727;27;20376;-94
2022/11/06 06:14:27;;;;;;;6.13;2.30;;;;;;;8.90;75.97;98631.72;5164948;27;20047;-95
2022/11/06 06:16:53;;;;;;;4.30;2.47;;;;;;;9.20;73.60;98624.81;5165253;27;20067;-94
2022/11/06 06:19:20;;;;;;;5.22;2.47;;;;;;;9.35;71.72;98621.81;5164432;27;20039;-94
2022/11/06 06:21:46;;;;;;;3.85;2.10;;;;;;;9.54;72.43;98648.78;5164632;27;20051;-96
2022/11/06 06:24:13;;;;;;;6.65;2.53;;;;;;;9.50;74.15;98649.75;5164455;27;20382;-96
2022/11/06 06:26:40;;;;;;;4.97;2.30;;;;;;;9.28;72.51;98625.50;5164912;27;20374;-95
2022/11/06 06:29:09;;;;;;;7.13;2.60;;;;;;;9.29;74.63;98634.34;5165063;27;20054;-95
2022/11/06 06:31:36;;;;;;;3.97;2.40;;;;;;;9.36;70.92;98630.63;5164258;27;20038;-94
2022/11/06 06:34:03;;;;;;;4.57;2.28;;;;;;;9.57;69.86;98623.94;5164448;27;20046;-95
2022/11/06 06:36:29;;;;;;;4.35;2.40;;;;;;;9.73;70.14;98642.97;5164408;27;20064;-95
2022/11/06 06:38:55;;;;;;;4.15;2.78;;;;;;;9.62;73.00;98632.63;5164523;27;20050;-95
2022/11/06 06:41:22;;;;;;;4.20;2.58;;;;;;;9.66;72.67;98635.16;5164619;27;20053;-94
2022/11/06 06:43:48;;;;;;;4.00;2.40;;;;;;;9.69;70.04;98630.69;5164547;27;20043;-94
2022/11/06 06:46:14;;;;;;;3.63;2.22;;;;;;;9.88;68.93;98627.50;5164123;27;20039;-95
2022/11/06 06:48:40;;;;;;;5.55;2.30;;;;;;;9.93;69.16;98634.47;5162915;27;20051;-93
2022/11/06 06:51:06;;;;;;;4.75;2.63;;;;;;;9.88;71.64;98634.59;5163976;27;20050;-95
2022/11/06 06:53:34;;;;;;;4.45;2.50;;;;;;;9.91;70.08;98650.50;5164347;27;20058;-94
2022/11/06 06:56:00;;;;;;;5.82;2.28;;;;;;;10.14;68.34;98651.66;5164573;27;20079;-96
2022/11/06 06:58:28;;;;;;;4.32;2.35;;;;;;;10.38;67.60;98658.97;5162569;27;20438;-94
2022/11/06 07:00:57;;;;;;;4.30;2.65;;;;;;;10.47;66.62;98656.06;5163122;27;20070;-94
2022/11/06 07:03:23;;;;;;;3.70;2.17;;;;;;;10.50;66.29;98651.56;5163461;27;20068;-94
2022/11/06 07:05:49;;;;;;;2.78;2.00;;;;;;;10.54;66.91;98671.81;5163579;27;20066;-94
2022/11/06 07:08:16;;;;;;;9.93;2.50;;;;;;;10.52;66.86;98665.66;5163458;27;20111;-94
2022/11/06 07:10:41;;;;;;;3.50;2.22;;;;;;;10.55;66.98;98669.13;5164026;27;20043;-94
2022/11/06 07:13:07;;;;;;;3.55;2.22;;;;;;;10.57;66.80;98661.09;5163524;27;20087;-95
2022/11/06 07:15:35;;;;;;;3.40;2.10;;;;;;;10.77;68.03;98692.44;5163870;27;20427;-96
2022/11/06 07:18:01;;;;;;;3.90;2.40;;;;;;;10.90;65.37;98680.53;5163826;27;20065;-95
2022/11/06 07:20:27;;;;;;;5.25;2.60;;;;;;;11.11;64.74;98679.00;5162992;27;20095;-95
2022/11/06 07:22:54;;;;;;;5.65;2.33;;;;;;;11.30;64.72;98677.53;5163174;27;20050;-95
2022/11/06 07:25:20;;;;;;;5.65;2.40;;;;;;;11.44;63.80;98671.75;5163813;27;20057;-96
2022/11/06 07:27:46;;;;;;;3.33;2.03;;;;;;;11.67;64.21;98691.44;5163876;27;20411;-96
2022/11/06 07:30:12;;;;;;;4.95;2.35;;;;;;;11.63;64.16;98682.69;5163921;27;20038;-95
2022/11/06 07:32:40;;;;;;;4.20;2.40;;;;;;;11.73;63.25;98683.22;5163442;27;20133;-95
2022/11/06 07:35:07;;;;;;;3.92;2.40;;;;;;;11.81;62.38;98678.53;5163582;27;20042;-95
2022/11/06 07:37:34;;;;;;;4.10;2.30;;;;;;;11.92;62.32;98678.19;5163332;27;20060;-95
2022/11/06 07:40:00;;;;;;;6.60;2.63;;;;;;;12.09;61.43;98669.63;5163643;27;20053;-95
2022/11/06 07:42:27;;;;;;;5.57;2.45;;;;;;;12.22;60.89;98672.72;5163910;27;20142;-95
2022/11/06 07:44:54;;;;;;;5.85;2.53;;;;;;;12.35;61.84;98695.38;5164310;27;20055;-96
2022/11/06 07:47:20;;;;;;;6.40;2.42;;;;;;;12.42;61.91;98672.00;5164664;27;20039;-95
2022/11/06 07:49:47;;;;;;;3.13;2.17;;;;;;;12.54;60.63;98677.78;5164025;27;20077;-95
2022/11/06 07:52:13;;;;;;;4.18;2.40;;;;;;;12.51;61.01;98674.34;5163620;27;20050;-96
2022/11/06 07:54:39;;;;;;;3.88;2.55;;;;;;;12.65;61.71;98688.06;5163452;27;20099;-95
2022/11/06 07:57:08;;;;;;;3.95;2.55;;;;;;;12.65;61.69;98703.19;5163739;27;20425;-95
2022/11/06 07:59:34;;;;;;;6.72;2.83;;;;;;;12.53;62.31;98670.72;5165670;27;20039;-95
2022/11/06 08:02:01;;;;;;;7.90;3.15;;;;;;;12.46;62.49;98671.84;5162486;27;20043;-95
2022/11/06 08:04:30;;;;;;;6.55;2.72;;;;;;;12.74;63.28;98702.84;5164727;27;20051;-95
2022/11/06 08:06:57;;;;;;;6.18;2.85;;;;;;;12.86;62.83;98701.50;5165068;27;20398;-95
2022/11/06 08:09:24;;;;;;;6.13;2.67;;;;;;;12.79;62.02;98670.66;5164778;27;20099;-94
2022/11/06 08:11:50;;;;;;;6.80;3.03;;;;;;;12.82;61.86;98681.25;5165152;27;20047;-96
2022/11/06 08:14:16;;;;;;;4.68;2.63;;;;;;;12.67;62.14;98672.00;5164249;27;20054;-95
2022/11/06 08:16:42;;;;;;;7.75;3.08;;;;;;;12.77;61.69;98681.38;5163457;27;20126;-95
2022/11/06 08:19:08;;;;;;;5.93;2.72;;;;;;;12.76;61.69;98670.78;5164274;27;20046;-95
2022/11/06 08:21:34;;;;;;;4.82;2.40;;;;;;;13.05;62.07;98685.69;5163506;27;20488;-94
2022/11/06 08:24:02;;;;;;;3.92;2.50;;;;;;;12.80;61.56;98689.28;5162881;27;20050;-96
2022/11/06 08:26:28;;;;;;;6.40;2.50;;;;;;;12.79;61.05;98694.69;5162770;27;20046;-95
2022/11/06 08:28:54;;;;;;;4.10;2.40;;;;;;;13.09;61.77;98704.19;5162557;27;20317;-94
2022/11/06 08:31:21;;;;;;;10.10;3.08;;;;;;;13.10;61.90;98679.25;5162410;27;20047;-94
2022/11/06 08:33:47;;;;;;;6.78;2.83;;;;;;;13.06;61.60;98669.63;5162265;27;20076;-95
2022/11/06 08:36:13;;;;;;;5.75;2.70;;;;;;;13.25;61.41;98669.78;5163425;27;20046;-95
2022/11/06 08:38:40;;;;;;;7.25;3.65;;;;;;;13.41;61.59;98686.06;5162930;27;20039;-95
2022/11/06 08:41:09;;;;;;;4.38;2.40;;;;;;;13.60;60.54;98682.66;5163009;27;20047;-96
2022/11/06 08:43:37;;;;;;;4.82;2.40;;;;;;;13.53;60.77;98657.97;5162568;27;20051;-94
2022/11/06 08:46:04;;;;;;;6.85;2.90;;;;;;;13.59;60.50;98686.28;5162728;27;20126;-95
2022/11/06 08:48:33;;;;;;;5.95;2.67;;;;;;;13.48;60.33;98673.34;5162859;27;20480;-95
2022/11/06 08:50:59;;;;;;;;;;;;;;;13.78;58.95;98697.94;5165456;27;20050;-94
2022/11/06 08:53:26;;;;;;;3.70;2.30;;;;;;;13.82;59.03;98680.84;5165806;27;19947;-95
2022/11/06 08:55:53;;;;;;;4.45;2.53;;;;;;;13.68;58.70;98670.72;5161835;27;20034;-94
2022/11/06 08:58:20;;;;;;;8.85;2.85;;;;;;;13.91;59.46;98672.44;5161961;27;20100;-96
2022/11/06 09:00:47;;;;;;;4.07;2.40;;;;;;;13.99;58.13;98672.13;5165369;27;20043;-95
2022/11/06 09:03:16;;;;;;;5.05;2.60;;;;;;;13.99;57.50;98672.13;5163851;27;20162;-95
2022/11/06 09:05:43;;;;;;;6.13;3.08;;;;;;;13.94;58.03;98674.09;5162787;27;20038;-94
2022/11/06 09:08:09;;;;;;;11.38;6.15;;;;;;;14.07;58.30;98688.69;5160983;27;20042;-95
2022/11/06 09:10:36;;;;;;;7.93;2.72;;;;;;;13.90;57.98;98691.22;5160197;27;20042;-94
2022/11/06 09:13:03;;;;;;;5.45;2.38;;;;;;;14.10;57.08;98696.59;5163611;27;20053;-94
2022/11/06 09:15:30;;;;;;;3.95;2.22;;;;;;;14.04;56.02;98687.97;5167027;27;20049;-95
2022/11/06 09:17:56;;;;;;;4.03;2.45;;;;;;;14.09;56.28;98697.50;5164580;27;20042;-94
2022/11/06 09:20:23;;;;;;;5.32;2.90;;;;;;;14.17;56.74;98694.53;5164828;27;20506;-95
2022/11/06 09:22:50;;;;;;;4.80;2.42;;;;;;;14.39;56.06;98705.16;5165313;27;20060;-95
2022/11/06 09:25:20;;;;;;;4.10;2.20;;;;;;;14.54;55.83;98699.13;5166769;27;20110;-94
2022/11/06 09:27:48;;;;;;;5.68;3.03;;;;;;;14.71;55.13;98690.41;5166039;27;20053;-95
2022/11/06 09:30:16;;;;;;;5.38;2.50;;;;;;;14.70;53.92;98691.34;5167530;27;20051;-94
2022/11/06 09:32:46;;;;;;;4.35;2.40;;;;;;;14.31;55.28;98676.09;5164699;27;20523;-96
2022/11/06 09:35:12;;;;;;;4.82;2.20;;;;;;;14.54;54.72;98676.88;5167122;27;20070;-95
2022/11/06 09:37:39;;;;;;;6.82;2.50;;;;;;;14.71;54.83;98674.34;5167713;27;20050;-96
2022/11/06 09:40:07;;;;;;;5.43;2.50;;;;;;;14.89;55.96;98680.66;5168306;27;20099;-96
2022/11/06 09:42:52;;;;;;;4.88;2.42;;;;;;;14.93;55.19;98692.97;5166985;27;20536;-95
2022/11/06 09:45:21;;;;;;;3.28;2.28;;;;;;;14.82;56.01;98659.59;5168412;27;20483;-95
2022/11/06 09:47:59;;;;;;;4.63;2.42;;;;;;;14.67;56.47;98666.50;5167481;27;20038;-96
2022/11/06 09:50:30;;;;;;;4.68;2.40;;;;;;;14.75;55.00;98678.59;5168409;27;20517;-95
2022/11/06 09:53:02;;;;;;;4.22;2.20;;;;;;;14.89;54.96;98675.28;5169692;27;20115;-96
2022/11/06 09:55:32;;;;;;;3.65;2.50;;;;;;;14.94;54.02;98662.59;5169086;27;20456;-94
2022/11/06 09:58:03;;;;;;;4.78;2.25;;;;;;;15.02;53.37;98667.56;5166857;27;20076;-92
2022/11/06 10:00:30;;;;;;;7.57;2.42;;;;;;;14.96;53.08;98671.41;5157701;27;20444;-95
2022/11/06 10:03:05;;;;;;;5.90;2.40;;;;;;;15.10;55.13;98675.25;5148681;27;20111;-95
2022/11/06 10:05:36;;;;;;;3.58;2.10;;;;;;;15.15;54.83;98670.53;5151952;27;20039;-95
2022/11/06 10:08:11;;;;;;;4.40;2.38;;;;;;;15.30;53.88;98674.28;5149423;27;20059;-95
2022/11/06 10:10:45;;;;;;;3.10;2.20;;;;;;;15.22;55.37;98669.28;5150538;27;20047;-96
2022/11/06 10:13:24;;;;;;;5.43;2.60;;;;;;;15.43;56.77;98682.63;5148888;27;20553;-95
2022/11/06 10:15:58;;;;;;;3.63;2.10;;;;;;;15.35;55.36;98656.19;5150293;27;20046;-96
2022/11/06 10:18:36;;;;;;;4.75;2.10;;;;;;;15.40;54.76;98695.22;5149129;27;20078;-95
2022/11/06 10:21:09;;;;;;;5.70;2.20;;;;;;;15.00;54.36;98675.66;5145754;27;20043;-96
2022/11/06 10:23:45;;;;;;;4.28;2.25;;;;;;;15.14;52.69;98676.84;5150580;27;20051;-95
2022/11/06 10:26:14;;;;;;;3.38;2.13;;;;;;;15.14;52.03;98680.38;5146941;27;20119;-96
2022/11/06 10:29:11;;;;;;;3.92;2.00;;;;;;;15.06;52.90;98665.63;5144763;27;20031;-95
2022/11/06 10:31:43;;;;;;;4.50;2.25;;;;;;;15.07;53.42;98664.66;5146661;27;20388;-96
2022/11/06 10:34:16;;;;;;;3.92;2.13;;;;;;;15.14;54.21;98669.66;5147668;27;20063;-95
2022/11/06 10:36:47;;;;;;;4.45;2.22;;;;;;;15.21;55.29;98664.88;5169327;27;20095;-95
2022/11/06 10:39:22;;;;;;;4.97;2.20;;;;;;;15.21;53.96;98664.88;5167251;27;20047;-95
2022/11/06 10:41:51;;;;;;;6.10;2.25;;;;;;;15.30;55.21;98677.84;5174177;27;20039;-95
2022/11/06 10:44:25;;;;;;;4.57;2.30;;;;;;;15.26;53.73;98667.34;5176775;27;20054;-96
2022/11/06 10:47:05;;;;;;;2.97;2.00;;;;;;;15.51;54.64;98688.47;5172790;27;20043;-94
2022/11/06 10:49:41;;;;;;;3.47;2.20;;;;;;;15.53;52.92;98691.97;5164967;27;20042;-94
2022/11/06 10:52:40;;;;;;;4.93;2.38;;;;;;;15.41;53.96;98659.44;5168529;27;20047;-96
2022/11/06 10:55:50;;;;;;;2.80;1.88;;;;;;;15.55;52.66;98674.00;5086903;28;20094;-94
2022/11/06 10:58:18;;;;;;;5.53;2.50;;;;;;;15.40;53.93;98655.03;4987392;28;20046;-94
2022/11/06 11:00:52;;;;;;;4.13;2.30;;;;;;;15.52;53.59;98684.84;4986524;28;20082;-95
2022/11/06 11:03:25;;;;;;;3.58;2.33;;;;;;;15.38;52.14;98664.94;4964199;29;20047;-96
2022/11/06 11:05:54;;;;;;;4.68;2.10;;;;;;;15.45;53.58;98654.78;4968720;29;20039;-95
2022/11/06 11:08:32;;;;;;;3.08;1.98;;;;;;;15.31;52.64;98654.59;4967299;28;20055;-95
2022/11/06 11:11:04;;;;;;;3.67;2.00;;;;;;;15.52;51.31;98679.47;4976685;28;20049;-95
2022/11/06 11:13:31;;;;;;;2.85;1.95;;;;;;;15.40;53.25;98662.19;4981925;28;20046;-93
2022/11/06 11:15:57;;;;;;;3.63;2.05;;;;;;;15.34;53.61;98649.97;4983504;28;20067;-95
2022/11/06 11:18:33;;;;;;;5.20;2.30;;;;;;;15.49;53.66;98651.03;4985224;28;20046;-95
2022/11/06 11:21:19;;;;;;;4.32;2.35;;;;;;;15.33;51.15;98645.56;4982395;28;20409;-96
2022/11/06 11:24:03;;;;;;;4.50;2.65;;;;;;;15.53;51.95;98657.13;4988377;28;20149;-96
2022/11/06 11:26:36;;;;;;;5.65;2.55;;;;;;;15.43;52.51;98645.09;4985096;28;20606;-95
2022/11/06 11:29:13;;;;;;;5.53;2.20;;;;;;;15.33;53.70;98650.91;4974118;28;20055;-96
2022/11/06 11:31:39;;;;;;;6.03;2.55;;;;;;;15.30;53.32;98640.34;5016105;28;20105;-95
2022/11/06 11:34:16;;;;;;;4.47;2.20;;;;;;;15.28;52.31;98636.00;5055755;27;20468;-95
2022/11/06 11:40:34;;;;;;;3.28;2.30;;;;;;;15.25;52.54;98628.97;5148649;27;20047;-96
2022/11/06 11:43:26;;;;;;;5.75;2.10;;;;;;;15.11;51.87;98621.59;5144320;27;20039;-95
2022/11/06 11:46:20;;;;;;;6.78;2.20;;;;;;;15.25;52.42;98658.44;5148681;27;20029;-96
2022/11/06 11:48:48;;;;;;;8.57;3.70;;;;;;;15.15;51.53;98617.81;5147522;27;20061;-95
2022/11/06 11:51:29;;;;;;;8.68;3.58;;;;;;;15.41;51.37;98647.84;5150821;27;20107;-96
2022/11/06 11:53:59;;;;;;;3.83;2.50;;;;;;;15.29;51.56;98627.00;5149570;27;20060;-96
2022/11/06 11:56:28;;;;;;;3.58;2.17;;;;;;;15.50;51.92;98663.47;5150871;27;20099;-95
2022/11/06 11:59:04;;;;;;;8.90;4.20;;;;;;;15.33;52.00;98621.44;5153174;27;20035;-94
2022/11/06 12:01:40;;;;;;;7.18;3.47;;;;;;;15.35;51.03;98629.38;5142216;27;20113;-94
2022/11/06 12:04:45;;;;;;;4.57;2.90;;;;;;;15.64;51.90;98657.44;5153156;27;20051;-96
2022/11/06 12:10:50;;;;;;;3.65;2.47;;;;;;;15.35;51.47;98616.00;5087588;28;20060;-95